sensor_id;sensor_type;location;lat;lon;timestamp;temperature;humidity
55711;DHT22;41612;51.994;5.880;2023-07-13T00:00:19;17.50;71.40
55711;DHT22;41612;51.994;5.880;2023-07-13T00:02:46;17.50;71.20
55711;DHT22;41612;51.994;5.880;2023-07-13T00:05:11;17.50;71.50
55711;DHT22;41612;51.994;5.880;2023-07-13T00:07:37;17.40;71.30
55711;DHT22;41612;51.994;5.880;2023-07-13T00:10:04;17.40;71.20
55711;DHT22;41612;51.994;5.880;2023-07-13T00:12:35;17.40;71.70
55711;DHT22;41612;51.994;5.880;2023-07-13T00:15:05;17.30;71.60
55711;DHT22;41612;51.994;5.880;2023-07-13T00:17:31;17.40;71.30
55711;DHT22;41612;51.994;5.880;2023-07-13T00:19:57;17.40;70.90
55711;DHT22;41612;51.994;5.880;2023-07-13T00:22:24;17.40;71.60
55711;DHT22;41612;51.994;5.880;2023-07-13T00:24:53;17.40;71.20
55711;DHT22;41612;51.994;5.880;2023-07-13T00:27:21;17.40;71.50
55711;DHT22;41612;51.994;5.880;2023-07-13T00:29:47;17.30;71.30
55711;DHT22;41612;51.994;5.880;2023-07-13T00:32:13;17.30;71.60
55711;DHT22;41612;51.994;5.880;2023-07-13T00:34:39;17.30;72.00
55711;DHT22;41612;51.994;5.880;2023-07-13T00:37:06;17.30;71.60
55711;DHT22;41612;51.994;5.880;2023-07-13T00:39:33;17.20;71.70
55711;DHT22;41612;51.994;5.880;2023-07-13T00:42:00;17.20;71.60
55711;DHT22;41612;51.994;5.880;2023-07-13T00:44:27;17.20;71.80
55711;DHT22;41612;51.994;5.880;2023-07-13T00:46:54;17.20;72.00
55711;DHT22;41612;51.994;5.880;2023-07-13T00:49:24;17.20;71.90
55711;DHT22;41612;51.994;5.880;2023-07-13T00:51:54;17.20;72.30
55711;DHT22;41612;51.994;5.880;2023-07-13T00:54:28;17.20;71.80
55711;DHT22;41612;51.994;5.880;2023-07-13T00:56:58;17.10;71.90
55711;DHT22;41612;51.994;5.880;2023-07-13T00:59:25;17.10;71.50
55711;DHT22;41612;51.994;5.880;2023-07-13T01:01:51;17.00;72.30
55711;DHT22;41612;51.994;5.880;2023-07-13T01:04:18;17.00;71.50
55711;DHT22;41612;51.994;5.880;2023-07-13T01:06:47;17.00;72.10
55711;DHT22;41612;51.994;5.880;2023-07-13T01:09:13;17.00;72.50
55711;DHT22;41612;51.994;5.880;2023-07-13T01:11:40;17.00;72.60
55711;DHT22;41612;51.994;5.880;2023-07-13T01:14:07;17.00;72.60
55711;DHT22;41612;51.994;5.880;2023-07-13T01:16:35;17.00;72.20
55711;DHT22;41612;51.994;5.880;2023-07-13T01:19:01;17.00;72.50
55711;DHT22;41612;51.994;5.880;2023-07-13T01:21:32;16.90;71.90
55711;DHT22;41612;51.994;5.880;2023-07-13T01:23:58;16.90;72.60
55711;DHT22;41612;51.994;5.880;2023-07-13T01:26:24;16.90;72.70
55711;DHT22;41612;51.994;5.880;2023-07-13T01:28:50;16.80;72.50
55711;DHT22;41612;51.994;5.880;2023-07-13T01:31:16;16.80;72.70
55711;DHT22;41612;51.994;5.880;2023-07-13T01:33:42;16.80;73.20
55711;DHT22;41612;51.994;5.880;2023-07-13T01:36:10;16.70;73.00
55711;DHT22;41612;51.994;5.880;2023-07-13T01:38:37;16.80;73.10
55711;DHT22;41612;51.994;5.880;2023-07-13T01:41:03;16.80;72.50
55711;DHT22;41612;51.994;5.880;2023-07-13T01:43:29;16.70;72.30
55711;DHT22;41612;51.994;5.880;2023-07-13T01:45:55;16.70;72.70
55711;DHT22;41612;51.994;5.880;2023-07-13T01:48:20;16.80;72.70
55711;DHT22;41612;51.994;5.880;2023-07-13T01:50:48;16.70;72.30
55711;DHT22;41612;51.994;5.880;2023-07-13T01:53:14;16.70;72.70
55711;DHT22;41612;51.994;5.880;2023-07-13T01:55:39;16.70;72.80
55711;DHT22;41612;51.994;5.880;2023-07-13T01:58:05;16.60;73.00
55711;DHT22;41612;51.994;5.880;2023-07-13T02:00:32;16.70;72.70
55711;DHT22;41612;51.994;5.880;2023-07-13T02:02:58;16.60;72.80
55711;DHT22;41612;51.994;5.880;2023-07-13T02:05:24;16.60;73.30
55711;DHT22;41612;51.994;5.880;2023-07-13T02:07:50;16.50;73.20
55711;DHT22;41612;51.994;5.880;2023-07-13T02:10:17;16.50;73.00
55711;DHT22;41612;51.994;5.880;2023-07-13T02:12:43;16.50;73.00
55711;DHT22;41612;51.994;5.880;2023-07-13T02:15:10;16.50;73.30
55711;DHT22;41612;51.994;5.880;2023-07-13T02:17:36;16.40;73.00
55711;DHT22;41612;51.994;5.880;2023-07-13T02:20:03;16.30;73.20
55711;DHT22;41612;51.994;5.880;2023-07-13T02:22:30;16.30;73.30
55711;DHT22;41612;51.994;5.880;2023-07-13T02:24:56;16.30;73.60
55711;DHT22;41612;51.994;5.880;2023-07-13T02:27:22;16.20;73.40
55711;DHT22;41612;51.994;5.880;2023-07-13T02:29:49;16.20;73.60
55711;DHT22;41612;51.994;5.880;2023-07-13T02:32:17;16.20;74.00
55711;DHT22;41612;51.994;5.880;2023-07-13T02:34:43;16.20;74.10
55711;DHT22;41612;51.994;5.880;2023-07-13T02:37:09;16.20;74.20
55711;DHT22;41612;51.994;5.880;2023-07-13T02:39:35;16.10;74.30
55711;DHT22;41612;51.994;5.880;2023-07-13T02:42:03;16.10;74.10
55711;DHT22;41612;51.994;5.880;2023-07-13T02:44:29;16.00;74.30
55711;DHT22;41612;51.994;5.880;2023-07-13T02:46:55;16.00;74.20
55711;DHT22;41612;51.994;5.880;2023-07-13T02:49:21;16.00;74.70
55711;DHT22;41612;51.994;5.880;2023-07-13T02:51:47;16.00;74.80
55711;DHT22;41612;51.994;5.880;2023-07-13T02:54:13;15.90;74.50
55711;DHT22;41612;51.994;5.880;2023-07-13T02:56:40;16.00;74.50
55711;DHT22;41612;51.994;5.880;2023-07-13T02:59:06;15.90;74.40
55711;DHT22;41612;51.994;5.880;2023-07-13T03:01:32;15.90;74.70
55711;DHT22;41612;51.994;5.880;2023-07-13T03:04:01;15.80;75.00
55711;DHT22;41612;51.994;5.880;2023-07-13T03:06:27;15.80;75.00
55711;DHT22;41612;51.994;5.880;2023-07-13T03:08:56;15.80;75.00
55711;DHT22;41612;51.994;5.880;2023-07-13T03:11:22;15.80;75.20
55711;DHT22;41612;51.994;5.880;2023-07-13T03:14:09;15.70;75.30
55711;DHT22;41612;51.994;5.880;2023-07-13T03:16:36;15.70;75.40
55711;DHT22;41612;51.994;5.880;2023-07-13T03:19:02;15.70;75.40
55711;DHT22;41612;51.994;5.880;2023-07-13T03:21:32;15.70;75.50
55711;DHT22;41612;51.994;5.880;2023-07-13T03:23:58;15.60;75.70
55711;DHT22;41612;51.994;5.880;2023-07-13T03:26:24;15.50;76.10
55711;DHT22;41612;51.994;5.880;2023-07-13T03:28:50;15.50;76.20
55711;DHT22;41612;51.994;5.880;2023-07-13T03:31:22;15.50;76.40
55711;DHT22;41612;51.994;5.880;2023-07-13T03:33:50;15.50;76.40
55711;DHT22;41612;51.994;5.880;2023-07-13T03:36:20;15.50;76.50
55711;DHT22;41612;51.994;5.880;2023-07-13T03:38:48;15.50;76.40
55711;DHT22;41612;51.994;5.880;2023-07-13T03:41:17;15.50;76.60
55711;DHT22;41612;51.994;5.880;2023-07-13T03:43:43;15.40;76.70
55711;DHT22;41612;51.994;5.880;2023-07-13T03:46:11;15.40;76.60
55711;DHT22;41612;51.994;5.880;2023-07-13T03:48:36;15.40;76.60
55711;DHT22;41612;51.994;5.880;2023-07-13T03:51:02;15.50;76.50
55711;DHT22;41612;51.994;5.880;2023-07-13T03:53:29;15.50;76.60
55711;DHT22;41612;51.994;5.880;2023-07-13T03:55:54;15.50;76.70
55711;DHT22;41612;51.994;5.880;2023-07-13T03:58:35;15.50;76.50
55711;DHT22;41612;51.994;5.880;2023-07-13T04:01:10;15.50;76.50
55711;DHT22;41612;51.994;5.880;2023-07-13T04:03:36;15.50;76.60
55711;DHT22;41612;51.994;5.880;2023-07-13T04:06:07;15.50;76.60
55711;DHT22;41612;51.994;5.880;2023-07-13T04:08:35;15.40;76.70
55711;DHT22;41612;51.994;5.880;2023-07-13T04:11:03;15.50;76.80
55711;DHT22;41612;51.994;5.880;2023-07-13T04:13:30;15.40;77.10
55711;DHT22;41612;51.994;5.880;2023-07-13T04:15:55;15.40;77.00
55711;DHT22;41612;51.994;5.880;2023-07-13T04:18:22;15.40;76.90
55711;DHT22;41612;51.994;5.880;2023-07-13T04:20:49;15.40;76.80
55711;DHT22;41612;51.994;5.880;2023-07-13T04:23:15;15.50;76.90
55711;DHT22;41612;51.994;5.880;2023-07-13T04:25:49;15.50;76.80
55711;DHT22;41612;51.994;5.880;2023-07-13T04:28:15;15.50;76.80
55711;DHT22;41612;51.994;5.880;2023-07-13T04:30:43;15.50;76.70
55711;DHT22;41612;51.994;5.880;2023-07-13T04:33:09;15.60;76.30
55711;DHT22;41612;51.994;5.880;2023-07-13T04:35:35;15.70;76.50
55711;DHT22;41612;51.994;5.880;2023-07-13T04:38:01;15.80;76.00
55711;DHT22;41612;51.994;5.880;2023-07-13T04:40:28;15.80;75.60
55711;DHT22;41612;51.994;5.880;2023-07-13T04:42:55;15.90;75.60
55711;DHT22;41612;51.994;5.880;2023-07-13T04:45:21;16.00;75.90
55711;DHT22;41612;51.994;5.880;2023-07-13T04:47:49;16.00;75.70
55711;DHT22;41612;51.994;5.880;2023-07-13T04:50:15;16.00;75.70
55711;DHT22;41612;51.994;5.880;2023-07-13T04:52:45;16.00;75.80
55711;DHT22;41612;51.994;5.880;2023-07-13T04:55:12;16.00;75.60
55711;DHT22;41612;51.994;5.880;2023-07-13T04:57:37;16.10;76.20
55711;DHT22;41612;51.994;5.880;2023-07-13T05:00:04;16.10;76.20
55711;DHT22;41612;51.994;5.880;2023-07-13T05:02:30;16.10;75.80
55711;DHT22;41612;51.994;5.880;2023-07-13T05:04:57;16.10;75.80
55711;DHT22;41612;51.994;5.880;2023-07-13T05:07:23;16.20;75.80
55711;DHT22;41612;51.994;5.880;2023-07-13T05:09:49;16.20;75.00
55711;DHT22;41612;51.994;5.880;2023-07-13T05:12:14;16.30;75.30
55711;DHT22;41612;51.994;5.880;2023-07-13T05:14:40;16.30;75.30
55711;DHT22;41612;51.994;5.880;2023-07-13T05:17:06;16.30;76.00
55711;DHT22;41612;51.994;5.880;2023-07-13T05:19:32;16.30;76.00
55711;DHT22;41612;51.994;5.880;2023-07-13T05:21:58;16.30;75.30
55711;DHT22;41612;51.994;5.880;2023-07-13T05:24:26;16.40;75.20
55711;DHT22;41612;51.994;5.880;2023-07-13T05:26:53;16.40;76.10
55711;DHT22;41612;51.994;5.880;2023-07-13T05:29:19;16.40;75.30
55711;DHT22;41612;51.994;5.880;2023-07-13T05:31:45;16.50;75.20
55711;DHT22;41612;51.994;5.880;2023-07-13T05:34:11;16.50;74.70
55711;DHT22;41612;51.994;5.880;2023-07-13T05:36:37;16.60;75.70
55711;DHT22;41612;51.994;5.880;2023-07-13T05:39:03;16.60;74.30
55711;DHT22;41612;51.994;5.880;2023-07-13T05:41:32;16.70;74.50
55711;DHT22;41612;51.994;5.880;2023-07-13T05:43:58;16.80;75.20
55711;DHT22;41612;51.994;5.880;2023-07-13T05:46:24;16.70;75.90
55711;DHT22;41612;51.994;5.880;2023-07-13T05:48:50;16.70;74.60
55711;DHT22;41612;51.994;5.880;2023-07-13T05:51:16;16.80;74.70
55711;DHT22;41612;51.994;5.880;2023-07-13T05:53:42;16.80;75.40
55711;DHT22;41612;51.994;5.880;2023-07-13T05:56:08;16.80;75.70
55711;DHT22;41612;51.994;5.880;2023-07-13T05:58:33;16.90;74.60
55711;DHT22;41612;51.994;5.880;2023-07-13T06:01:06;17.00;74.40
55711;DHT22;41612;51.994;5.880;2023-07-13T06:03:33;17.00;75.30
55711;DHT22;41612;51.994;5.880;2023-07-13T06:05:59;17.00;74.70
55711;DHT22;41612;51.994;5.880;2023-07-13T06:08:28;17.20;75.40
55711;DHT22;41612;51.994;5.880;2023-07-13T06:10:58;17.20;74.90
55711;DHT22;41612;51.994;5.880;2023-07-13T06:13:26;17.20;73.70
55711;DHT22;41612;51.994;5.880;2023-07-13T06:15:52;17.30;74.40
55711;DHT22;41612;51.994;5.880;2023-07-13T06:18:18;17.30;74.50
55711;DHT22;41612;51.994;5.880;2023-07-13T06:20:44;17.30;74.40
55711;DHT22;41612;51.994;5.880;2023-07-13T06:23:09;17.40;74.50
55711;DHT22;41612;51.994;5.880;2023-07-13T06:25:35;17.30;73.80
55711;DHT22;41612;51.994;5.880;2023-07-13T06:28:01;17.40;73.20
55711;DHT22;41612;51.994;5.880;2023-07-13T06:30:27;17.60;71.70
55711;DHT22;41612;51.994;5.880;2023-07-13T06:32:53;17.70;71.80
55711;DHT22;41612;51.994;5.880;2023-07-13T06:35:19;17.80;72.60
55711;DHT22;41612;51.994;5.880;2023-07-13T06:37:45;17.80;70.90
55711;DHT22;41612;51.994;5.880;2023-07-13T06:40:12;17.90;73.30
55711;DHT22;41612;51.994;5.880;2023-07-13T06:42:38;18.00;71.70
55711;DHT22;41612;51.994;5.880;2023-07-13T06:45:05;18.20;70.90
55711;DHT22;41612;51.994;5.880;2023-07-13T06:47:31;18.30;72.40
55711;DHT22;41612;51.994;5.880;2023-07-13T06:49:57;18.30;73.00
55711;DHT22;41612;51.994;5.880;2023-07-13T06:52:23;18.30;72.40
55711;DHT22;41612;51.994;5.880;2023-07-13T06:54:49;18.40;72.30
55711;DHT22;41612;51.994;5.880;2023-07-13T06:57:14;18.60;71.80
55711;DHT22;41612;51.994;5.880;2023-07-13T06:59:40;18.70;72.00
55711;DHT22;41612;51.994;5.880;2023-07-13T07:02:07;18.70;71.60
55711;DHT22;41612;51.994;5.880;2023-07-13T07:04:36;18.80;72.00
55711;DHT22;41612;51.994;5.880;2023-07-13T07:07:02;18.90;72.30
55711;DHT22;41612;51.994;5.880;2023-07-13T07:09:28;18.90;71.40
55711;DHT22;41612;51.994;5.880;2023-07-13T07:11:55;19.00;71.00
55711;DHT22;41612;51.994;5.880;2023-07-13T07:14:21;18.90;71.00
55711;DHT22;41612;51.994;5.880;2023-07-13T07:16:47;18.80;71.80
55711;DHT22;41612;51.994;5.880;2023-07-13T07:19:13;18.90;71.10
55711;DHT22;41612;51.994;5.880;2023-07-13T07:21:38;18.90;72.30
55711;DHT22;41612;51.994;5.880;2023-07-13T07:24:05;19.00;70.80
55711;DHT22;41612;51.994;5.880;2023-07-13T07:26:31;19.00;71.60
55711;DHT22;41612;51.994;5.880;2023-07-13T07:28:57;19.00;70.60
55711;DHT22;41612;51.994;5.880;2023-07-13T07:31:23;19.00;69.60
55711;DHT22;41612;51.994;5.880;2023-07-13T07:33:48;19.00;71.30
55711;DHT22;41612;51.994;5.880;2023-07-13T07:36:17;19.10;72.00
55711;DHT22;41612;51.994;5.880;2023-07-13T07:38:44;19.10;71.80
55711;DHT22;41612;51.994;5.880;2023-07-13T07:41:10;19.20;71.10
55711;DHT22;41612;51.994;5.880;2023-07-13T07:43:36;19.20;71.50
55711;DHT22;41612;51.994;5.880;2023-07-13T07:46:02;19.30;71.80
55711;DHT22;41612;51.994;5.880;2023-07-13T07:48:28;19.30;71.70
55711;DHT22;41612;51.994;5.880;2023-07-13T07:50:54;19.30;71.20
55711;DHT22;41612;51.994;5.880;2023-07-13T07:53:20;19.20;72.00
55711;DHT22;41612;51.994;5.880;2023-07-13T07:55:46;19.30;72.00
55711;DHT22;41612;51.994;5.880;2023-07-13T07:58:12;19.30;71.80
55711;DHT22;41612;51.994;5.880;2023-07-13T08:00:37;19.30;72.20
55711;DHT22;41612;51.994;5.880;2023-07-13T08:03:03;19.30;71.40
55711;DHT22;41612;51.994;5.880;2023-07-13T08:05:29;19.30;70.90
55711;DHT22;41612;51.994;5.880;2023-07-13T08:07:55;19.60;70.50
55711;DHT22;41612;51.994;5.880;2023-07-13T08:10:21;20.00;69.50
55711;DHT22;41612;51.994;5.880;2023-07-13T08:12:47;20.20;68.60
55711;DHT22;41612;51.994;5.880;2023-07-13T08:15:15;20.40;67.80
55711;DHT22;41612;51.994;5.880;2023-07-13T08:17:41;20.30;67.40
55711;DHT22;41612;51.994;5.880;2023-07-13T08:20:07;20.50;68.60
55711;DHT22;41612;51.994;5.880;2023-07-13T08:22:34;20.70;67.90
55711;DHT22;41612;51.994;5.880;2023-07-13T08:25:01;20.80;68.00
55711;DHT22;41612;51.994;5.880;2023-07-13T08:27:28;20.80;67.40
55711;DHT22;41612;51.994;5.880;2023-07-13T08:29:54;20.70;65.60
55711;DHT22;41612;51.994;5.880;2023-07-13T08:32:22;20.80;65.40
55711;DHT22;41612;51.994;5.880;2023-07-13T08:34:48;20.90;67.10
55711;DHT22;41612;51.994;5.880;2023-07-13T08:37:15;21.10;66.10
55711;DHT22;41612;51.994;5.880;2023-07-13T08:39:42;21.20;65.30
55711;DHT22;41612;51.994;5.880;2023-07-13T08:45:06;21.50;64.60
55711;DHT22;41612;51.994;5.880;2023-07-13T08:47:38;21.70;63.90
55711;DHT22;41612;51.994;5.880;2023-07-13T08:50:05;21.60;63.00
55711;DHT22;41612;51.994;5.880;2023-07-13T08:52:38;21.30;64.00
55711;DHT22;41612;51.994;5.880;2023-07-13T08:55:18;20.90;64.80
55711;DHT22;41612;51.994;5.880;2023-07-13T08:57:50;20.60;65.60
55711;DHT22;41612;51.994;5.880;2023-07-13T09:00:18;20.30;66.20
55711;DHT22;41612;51.994;5.880;2023-07-13T09:02:57;20.30;66.40
55711;DHT22;41612;51.994;5.880;2023-07-13T09:05:40;20.30;65.60
55711;DHT22;41612;51.994;5.880;2023-07-13T09:11:03;20.70;63.80
55711;DHT22;41612;51.994;5.880;2023-07-13T09:13:43;21.10;61.70
55711;DHT22;41612;51.994;5.880;2023-07-13T09:16:12;21.20;61.10
55711;DHT22;41612;51.994;5.880;2023-07-13T09:18:42;21.40;61.00
55711;DHT22;41612;51.994;5.880;2023-07-13T09:21:10;21.80;60.90
55711;DHT22;41612;51.994;5.880;2023-07-13T09:23:36;22.00;59.60
55711;DHT22;41612;51.994;5.880;2023-07-13T09:26:23;22.00;59.50
55711;DHT22;41612;51.994;5.880;2023-07-13T09:29:14;22.10;57.30
55711;DHT22;41612;51.994;5.880;2023-07-13T09:31:46;21.80;58.30
55711;DHT22;41612;51.994;5.880;2023-07-13T09:34:13;21.50;59.40
55711;DHT22;41612;51.994;5.880;2023-07-13T09:36:39;21.20;61.50
55711;DHT22;41612;51.994;5.880;2023-07-13T09:41:53;20.20;68.00
55711;DHT22;41612;51.994;5.880;2023-07-13T09:44:37;19.80;68.70
55711;DHT22;41612;51.994;5.880;2023-07-13T09:47:19;19.70;69.80
55711;DHT22;41612;51.994;5.880;2023-07-13T09:49:48;19.70;68.50
55711;DHT22;41612;51.994;5.880;2023-07-13T09:52:18;19.70;69.30
55711;DHT22;41612;51.994;5.880;2023-07-13T09:54:46;19.80;68.60
55711;DHT22;41612;51.994;5.880;2023-07-13T09:57:19;20.00;69.00
55711;DHT22;41612;51.994;5.880;2023-07-13T09:59:49;20.40;69.20
55711;DHT22;41612;51.994;5.880;2023-07-13T10:05:13;20.70;67.40
55711;DHT22;41612;51.994;5.880;2023-07-13T10:07:43;20.70;69.20
55711;DHT22;41612;51.994;5.880;2023-07-13T10:10:20;20.60;67.70
55711;DHT22;41612;51.994;5.880;2023-07-13T10:12:47;20.60;67.80
55711;DHT22;41612;51.994;5.880;2023-07-13T10:15:19;20.70;68.00
55711;DHT22;41612;51.994;5.880;2023-07-13T10:17:45;20.90;67.60
55711;DHT22;41612;51.994;5.880;2023-07-13T10:20:11;21.30;66.50
55711;DHT22;41612;51.994;5.880;2023-07-13T10:22:58;21.70;66.10
55711;DHT22;41612;51.994;5.880;2023-07-13T10:25:39;22.10;65.10
55711;DHT22;41612;51.994;5.880;2023-07-13T10:31:01;22.80;60.60
55711;DHT22;41612;51.994;5.880;2023-07-13T10:33:43;23.20;58.40
55711;DHT22;41612;51.994;5.880;2023-07-13T10:38:58;22.80;58.80
55711;DHT22;41612;51.994;5.880;2023-07-13T10:41:31;22.40;59.20
55711;DHT22;41612;51.994;5.880;2023-07-13T10:44:04;22.30;59.80
55711;DHT22;41612;51.994;5.880;2023-07-13T10:46:43;22.30;59.80
55711;DHT22;41612;51.994;5.880;2023-07-13T11:29:37;22.60;60.00
55711;DHT22;41612;51.994;5.880;2023-07-13T11:32:23;22.80;61.60
55711;DHT22;41612;51.994;5.880;2023-07-13T11:34:49;23.20;59.50
55711;DHT22;41612;51.994;5.880;2023-07-13T11:37:17;23.70;57.40
55711;DHT22;41612;51.994;5.880;2023-07-13T11:39:46;24.20;56.60
55711;DHT22;41612;51.994;5.880;2023-07-13T11:42:17;24.30;56.50
55711;DHT22;41612;51.994;5.880;2023-07-13T11:44:47;24.50;56.00
55711;DHT22;41612;51.994;5.880;2023-07-13T11:47:23;24.70;55.30
55711;DHT22;41612;51.994;5.880;2023-07-13T11:49:55;24.70;53.30
55711;DHT22;41612;51.994;5.880;2023-07-13T11:52:38;24.80;49.70
55711;DHT22;41612;51.994;5.880;2023-07-13T11:55:13;24.90;52.00
55711;DHT22;41612;51.994;5.880;2023-07-13T11:57:48;25.00;52.30
55711;DHT22;41612;51.994;5.880;2023-07-13T12:00:18;24.90;53.30
55711;DHT22;41612;51.994;5.880;2023-07-13T12:02:49;25.00;52.20
55711;DHT22;41612;51.994;5.880;2023-07-13T12:05:18;24.80;51.70
55711;DHT22;41612;51.994;5.880;2023-07-13T12:07:44;24.50;51.40
55711;DHT22;41612;51.994;5.880;2023-07-13T12:10:25;24.00;52.90
55711;DHT22;41612;51.994;5.880;2023-07-13T12:12:58;23.60;53.40
55711;DHT22;41612;51.994;5.880;2023-07-13T12:15:38;23.40;55.40
55711;DHT22;41612;51.994;5.880;2023-07-13T12:18:13;23.70;54.30
55711;DHT22;41612;51.994;5.880;2023-07-13T12:20:49;24.00;54.10
55711;DHT22;41612;51.994;5.880;2023-07-13T12:23:38;24.70;53.30
55711;DHT22;41612;51.994;5.880;2023-07-13T12:29:52;26.00;48.30
55711;DHT22;41612;51.994;5.880;2023-07-13T12:32:22;25.60;49.50
55711;DHT22;41612;51.994;5.880;2023-07-13T12:34:56;25.40;50.80
55711;DHT22;41612;51.994;5.880;2023-07-13T12:37:23;25.50;50.00
55711;DHT22;41612;51.994;5.880;2023-07-13T12:39:50;25.10;48.80
55711;DHT22;41612;51.994;5.880;2023-07-13T12:42:28;24.60;51.30
55711;DHT22;41612;51.994;5.880;2023-07-13T12:45:05;24.30;53.50
55711;DHT22;41612;51.994;5.880;2023-07-13T12:47:42;24.10;54.10
55711;DHT22;41612;51.994;5.880;2023-07-13T12:50:23;24.00;54.70
55711;DHT22;41612;51.994;5.880;2023-07-13T12:52:54;23.90;54.80
55711;DHT22;41612;51.994;5.880;2023-07-13T12:55:21;23.60;55.20
55711;DHT22;41612;51.994;5.880;2023-07-13T12:57:54;23.50;56.00
55711;DHT22;41612;51.994;5.880;2023-07-13T13:02:57;23.30;56.50
55711;DHT22;41612;51.994;5.880;2023-07-13T13:05:25;23.50;56.30
55711;DHT22;41612;51.994;5.880;2023-07-13T13:07:52;24.80;54.10
55711;DHT22;41612;51.994;5.880;2023-07-13T13:10:18;27.00;48.40
55711;DHT22;41612;51.994;5.880;2023-07-13T13:12:47;27.70;45.80
55711;DHT22;41612;51.994;5.880;2023-07-13T13:15:13;28.30;45.30
55711;DHT22;41612;51.994;5.880;2023-07-13T13:17:40;29.30;43.40
55711;DHT22;41612;51.994;5.880;2023-07-13T13:20:20;29.90;42.70
55711;DHT22;41612;51.994;5.880;2023-07-13T13:22:47;29.70;42.10
55711;DHT22;41612;51.994;5.880;2023-07-13T13:25:14;29.80;43.90
55711;DHT22;41612;51.994;5.880;2023-07-13T13:27:44;31.20;40.40
55711;DHT22;41612;51.994;5.880;2023-07-13T13:30:14;32.90;36.70
55711;DHT22;41612;51.994;5.880;2023-07-13T13:32:44;32.70;36.90
55711;DHT22;41612;51.994;5.880;2023-07-13T13:35:14;31.40;38.40
55711;DHT22;41612;51.994;5.880;2023-07-13T13:37:40;30.20;40.20
55711;DHT22;41612;51.994;5.880;2023-07-13T13:40:14;30.20;41.10
55711;DHT22;41612;51.994;5.880;2023-07-13T13:42:40;31.70;38.90
55711;DHT22;41612;51.994;5.880;2023-07-13T13:45:11;33.30;37.70
55711;DHT22;41612;51.994;5.880;2023-07-13T13:47:39;34.80;35.20
55711;DHT22;41612;51.994;5.880;2023-07-13T13:50:18;36.10;32.90
55711;DHT22;41612;51.994;5.880;2023-07-13T13:52:45;36.50;31.30
55711;DHT22;41612;51.994;5.880;2023-07-13T13:55:14;35.80;28.80
55711;DHT22;41612;51.994;5.880;2023-07-13T13:57:41;34.40;30.90
55711;DHT22;41612;51.994;5.880;2023-07-13T14:00:09;32.70;32.30
55711;DHT22;41612;51.994;5.880;2023-07-13T14:02:41;32.60;35.00
55711;DHT22;41612;51.994;5.880;2023-07-13T14:05:13;32.50;33.40
55711;DHT22;41612;51.994;5.880;2023-07-13T14:07:39;32.20;35.40
55711;DHT22;41612;51.994;5.880;2023-07-13T14:10:11;32.70;31.80
55711;DHT22;41612;51.994;5.880;2023-07-13T14:12:38;33.30;34.50
55711;DHT22;41612;51.994;5.880;2023-07-13T14:15:05;33.80;32.40
55711;DHT22;41612;51.994;5.880;2023-07-13T14:17:31;32.80;34.30
55711;DHT22;41612;51.994;5.880;2023-07-13T14:19:58;31.90;34.90
55711;DHT22;41612;51.994;5.880;2023-07-13T14:22:25;32.20;36.20
55711;DHT22;41612;51.994;5.880;2023-07-13T14:24:54;31.60;37.20
55711;DHT22;41612;51.994;5.880;2023-07-13T14:27:21;31.00;35.60
55711;DHT22;41612;51.994;5.880;2023-07-13T14:29:47;30.90;36.30
55711;DHT22;41612;51.994;5.880;2023-07-13T14:32:13;32.00;36.20
55711;DHT22;41612;51.994;5.880;2023-07-13T14:34:39;32.70;37.10
55711;DHT22;41612;51.994;5.880;2023-07-13T14:37:08;32.40;34.90
55711;DHT22;41612;51.994;5.880;2023-07-13T14:39:37;32.70;34.60
55711;DHT22;41612;51.994;5.880;2023-07-13T14:42:04;32.40;36.10
55711;DHT22;41612;51.994;5.880;2023-07-13T14:44:31;31.60;34.60
55711;DHT22;41612;51.994;5.880;2023-07-13T14:46:58;30.50;37.00
55711;DHT22;41612;51.994;5.880;2023-07-13T14:49:32;29.40;36.30
55711;DHT22;41612;51.994;5.880;2023-07-13T14:52:01;28.60;39.20
55711;DHT22;41612;51.994;5.880;2023-07-13T14:54:29;27.90;39.90
55711;DHT22;41612;51.994;5.880;2023-07-13T14:56:55;28.00;38.20
55711;DHT22;41612;51.994;5.880;2023-07-13T14:59:21;27.80;39.00
55711;DHT22;41612;51.994;5.880;2023-07-13T15:01:48;27.20;42.60
55711;DHT22;41612;51.994;5.880;2023-07-13T15:04:15;26.60;45.80
55711;DHT22;41612;51.994;5.880;2023-07-13T15:09:21;25.80;46.30
55711;DHT22;41612;51.994;5.880;2023-07-13T15:11:47;25.60;44.90
55711;DHT22;41612;51.994;5.880;2023-07-13T15:14:12;25.60;46.40
55711;DHT22;41612;51.994;5.880;2023-07-13T15:16:38;25.50;46.30
55711;DHT22;41612;51.994;5.880;2023-07-13T15:19:04;25.30;51.00
55711;DHT22;41612;51.994;5.880;2023-07-13T15:21:30;25.10;49.40
55711;DHT22;41612;51.994;5.880;2023-07-13T15:24:00;25.00;52.80
55711;DHT22;41612;51.994;5.880;2023-07-13T15:26:26;25.10;53.90
55711;DHT22;41612;51.994;5.880;2023-07-13T15:28:52;25.20;50.10
55711;DHT22;41612;51.994;5.880;2023-07-13T15:31:24;25.20;51.30
55711;DHT22;41612;51.994;5.880;2023-07-13T15:33:52;25.00;48.20
55711;DHT22;41612;51.994;5.880;2023-07-13T15:36:19;24.80;47.20
55711;DHT22;41612;51.994;5.880;2023-07-13T15:38:46;24.70;49.90
55711;DHT22;41612;51.994;5.880;2023-07-13T15:41:16;24.70;49.90
55711;DHT22;41612;51.994;5.880;2023-07-13T15:43:42;24.60;49.50
55711;DHT22;41612;51.994;5.880;2023-07-13T15:46:09;24.50;53.40
55711;DHT22;41612;51.994;5.880;2023-07-13T15:48:36;24.40;53.30
55711;DHT22;41612;51.994;5.880;2023-07-13T15:51:03;24.30;47.90
55711;DHT22;41612;51.994;5.880;2023-07-13T15:53:32;24.50;48.60
55711;DHT22;41612;51.994;5.880;2023-07-13T15:55:59;24.90;47.00
55711;DHT22;41612;51.994;5.880;2023-07-13T15:58:26;25.00;48.00
55711;DHT22;41612;51.994;5.880;2023-07-13T16:00:52;25.00;47.50
55711;DHT22;41612;51.994;5.880;2023-07-13T16:03:22;24.90;47.00
55711;DHT22;41612;51.994;5.880;2023-07-13T16:05:49;26.10;47.40
55711;DHT22;41612;51.994;5.880;2023-07-13T16:08:30;27.70;43.30
55711;DHT22;41612;51.994;5.880;2023-07-13T16:10:57;28.40;44.10
55711;DHT22;41612;51.994;5.880;2023-07-13T16:13:23;28.00;43.80
55711;DHT22;41612;51.994;5.880;2023-07-13T16:15:50;28.10;44.20
55711;DHT22;41612;51.994;5.880;2023-07-13T16:18:16;28.30;42.60
55711;DHT22;41612;51.994;5.880;2023-07-13T16:20:46;28.10;43.00
55711;DHT22;41612;51.994;5.880;2023-07-13T16:23:14;27.20;44.30
55711;DHT22;41612;51.994;5.880;2023-07-13T16:25:41;26.60;44.70
55711;DHT22;41612;51.994;5.880;2023-07-13T16:28:11;26.00;45.10
55711;DHT22;41612;51.994;5.880;2023-07-13T16:30:37;25.40;46.60
55711;DHT22;41612;51.994;5.880;2023-07-13T16:33:04;25.00;47.20
55711;DHT22;41612;51.994;5.880;2023-07-13T16:35:36;24.80;50.20
55711;DHT22;41612;51.994;5.880;2023-07-13T16:38:03;24.60;49.40
55711;DHT22;41612;51.994;5.880;2023-07-13T16:40:34;24.40;49.60
55711;DHT22;41612;51.994;5.880;2023-07-13T16:43:01;24.30;49.50